KMLB/MLB METAR and TAF weather

Enter ICAO airport designator
Station Type Date Time Source
KMLB METAR 2020/07/11 22:53 UTC NOAA

KMLB 112253Z 19005KT 10SM FEW042 28/24 A2989 RMK AO2 SLP120 T02780244


Station Type Date Time Source
KMLB Decoded METAR 2020/07/11 22:53 UTC NOAA

MELBOURNE INTERNATIONAL, FL, United States (KMLB) 28-06N 080-39W 10M
Jul 11, 2020 - 06:53 PM EDT / 2020.07.11 2253 UTC
Wind: from the S (190 degrees) at 6 MPH (5 KT):0
Visibility: 10 mile(s):0
Sky conditions: mostly clear
Temperature: 82.0 F (27.8 C)
Dew Point: 75.9 F (24.4 C)
Relative Humidity: 81%
Pressure (altimeter): 29.89 in. Hg (1012 hPa)
ob: KMLB 112253Z 19005KT 10SM FEW042 28/24 A2989 RMK AO2 SLP120 T02780244
cycle: 23

Station Type Date Time Source
KMLB TAF 2020/07/11 20:10 UTC NOAA

TAF
AMD KMLB 112007Z 1120/1218 03009KT P6SM VCTS SCT035CB BKN060
TEMPO 1120/1122 3SM TSRA BKN030CB
FM112300 21008KT P6SM VCSH SCT040 SCT100
FM120200 VRB03KT P6SM FEW030 SCT100
FM121400 24008KT P6SM SCT035 BKN250

Example: see airport list